sensor_id;sensor_type;location;lat;lon;timestamp;temperature;humidity
33207;DHT22;19565;46.602;11.534;2023-06-10T00:00:04;20.40;98.80
33207;DHT22;19565;46.602;11.534;2023-06-10T00:02:33;20.30;98.80
33207;DHT22;19565;46.602;11.534;2023-06-10T00:05:02;20.30;98.60
33207;DHT22;19565;46.602;11.534;2023-06-10T00:07:30;20.40;98.50
33207;DHT22;19565;46.602;11.534;2023-06-10T00:09:59;20.50;98.70
33207;DHT22;19565;46.602;11.534;2023-06-10T00:12:32;20.50;98.80
33207;DHT22;19565;46.602;11.534;2023-06-10T00:15:04;20.40;98.60
33207;DHT22;19565;46.602;11.534;2023-06-10T00:17:33;20.50;98.60
33207;DHT22;19565;46.602;11.534;2023-06-10T00:20:01;20.40;98.40
33207;DHT22;19565;46.602;11.534;2023-06-10T00:22:36;20.40;98.70
33207;DHT22;19565;46.602;11.534;2023-06-10T00:25:05;20.30;98.70
33207;DHT22;19565;46.602;11.534;2023-06-10T00:27:36;20.20;99.10
33207;DHT22;19565;46.602;11.534;2023-06-10T00:30:05;20.30;99.00
33207;DHT22;19565;46.602;11.534;2023-06-10T00:32:34;20.00;99.50
33207;DHT22;19565;46.602;11.534;2023-06-10T00:35:03;19.90;99.80
33207;DHT22;19565;46.602;11.534;2023-06-10T00:37:31;19.90;99.80
33207;DHT22;19565;46.602;11.534;2023-06-10T00:40:02;20.00;99.60
33207;DHT22;19565;46.602;11.534;2023-06-10T00:42:30;20.10;99.50
33207;DHT22;19565;46.602;11.534;2023-06-10T00:44:59;20.10;99.40
33207;DHT22;19565;46.602;11.534;2023-06-10T00:47:28;19.80;99.80
33207;DHT22;19565;46.602;11.534;2023-06-10T00:49:57;19.60;99.90
33207;DHT22;19565;46.602;11.534;2023-06-10T00:52:28;19.60;99.90
33207;DHT22;19565;46.602;11.534;2023-06-10T00:54:57;19.50;99.90
33207;DHT22;19565;46.602;11.534;2023-06-10T00:57:25;19.50;99.90
33207;DHT22;19565;46.602;11.534;2023-06-10T00:59:54;19.60;99.90
33207;DHT22;19565;46.602;11.534;2023-06-10T01:02:23;19.70;99.90
33207;DHT22;19565;46.602;11.534;2023-06-10T01:04:52;19.80;99.90
33207;DHT22;19565;46.602;11.534;2023-06-10T01:07:24;19.80;99.60
33207;DHT22;19565;46.602;11.534;2023-06-10T01:09:57;19.70;99.90
33207;DHT22;19565;46.602;11.534;2023-06-10T01:12:31;19.60;99.90
33207;DHT22;19565;46.602;11.534;2023-06-10T01:15:02;19.50;99.90
33207;DHT22;19565;46.602;11.534;2023-06-10T01:17:32;19.50;99.90
33207;DHT22;19565;46.602;11.534;2023-06-10T01:20:00;19.60;99.90
33207;DHT22;19565;46.602;11.534;2023-06-10T01:22:39;19.50;99.90
33207;DHT22;19565;46.602;11.534;2023-06-10T01:25:08;19.30;99.90
33207;DHT22;19565;46.602;11.534;2023-06-10T01:27:39;19.40;99.90
33207;DHT22;19565;46.602;11.534;2023-06-10T01:30:12;19.60;99.90
33207;DHT22;19565;46.602;11.534;2023-06-10T01:32:45;19.80;99.90
33207;DHT22;19565;46.602;11.534;2023-06-10T01:35:14;19.90;99.90
33207;DHT22;19565;46.602;11.534;2023-06-10T01:37:46;19.90;99.90
33207;DHT22;19565;46.602;11.534;2023-06-10T01:40:16;19.90;99.60
33207;DHT22;19565;46.602;11.534;2023-06-10T01:42:46;19.90;99.50
33207;DHT22;19565;46.602;11.534;2023-06-10T01:45:15;20.00;99.60
33207;DHT22;19565;46.602;11.534;2023-06-10T01:47:43;20.00;99.50
33207;DHT22;19565;46.602;11.534;2023-06-10T01:50:11;20.00;99.60
33207;DHT22;19565;46.602;11.534;2023-06-10T01:52:39;20.10;99.60
33207;DHT22;19565;46.602;11.534;2023-06-10T01:55:09;20.00;99.60
33207;DHT22;19565;46.602;11.534;2023-06-10T01:57:37;20.10;99.80
33207;DHT22;19565;46.602;11.534;2023-06-10T02:00:06;20.00;99.90
33207;DHT22;19565;46.602;11.534;2023-06-10T02:02:35;20.00;99.90
33207;DHT22;19565;46.602;11.534;2023-06-10T02:05:03;20.00;99.60
33207;DHT22;19565;46.602;11.534;2023-06-10T02:07:32;20.00;99.80
33207;DHT22;19565;46.602;11.534;2023-06-10T02:10:00;20.00;99.90
33207;DHT22;19565;46.602;11.534;2023-06-10T02:12:29;19.90;99.90
33207;DHT22;19565;46.602;11.534;2023-06-10T02:14:57;19.90;99.90
33207;DHT22;19565;46.602;11.534;2023-06-10T02:17:26;19.90;99.90
33207;DHT22;19565;46.602;11.534;2023-06-10T02:19:54;19.90;99.90
33207;DHT22;19565;46.602;11.534;2023-06-10T02:22:23;19.90;99.90
33207;DHT22;19565;46.602;11.534;2023-06-10T02:24:52;19.90;99.90
33207;DHT22;19565;46.602;11.534;2023-06-10T02:27:20;19.90;99.90
33207;DHT22;19565;46.602;11.534;2023-06-10T02:29:50;19.80;99.90
33207;DHT22;19565;46.602;11.534;2023-06-10T02:32:18;19.80;99.90
33207;DHT22;19565;46.602;11.534;2023-06-10T02:34:48;19.70;99.90
33207;DHT22;19565;46.602;11.534;2023-06-10T02:37:16;19.80;99.90
33207;DHT22;19565;46.602;11.534;2023-06-10T02:39:44;19.70;99.90
33207;DHT22;19565;46.602;11.534;2023-06-10T02:42:12;19.70;99.90
33207;DHT22;19565;46.602;11.534;2023-06-10T02:44:41;19.70;99.90
33207;DHT22;19565;46.602;11.534;2023-06-10T02:47:10;19.60;99.90
33207;DHT22;19565;46.602;11.534;2023-06-10T02:49:38;19.50;99.90
33207;DHT22;19565;46.602;11.534;2023-06-10T02:52:07;19.50;99.90
33207;DHT22;19565;46.602;11.534;2023-06-10T02:54:35;19.50;99.90
33207;DHT22;19565;46.602;11.534;2023-06-10T02:57:03;19.50;99.90
33207;DHT22;19565;46.602;11.534;2023-06-10T02:59:32;19.50;99.90
33207;DHT22;19565;46.602;11.534;2023-06-10T03:02:00;19.40;99.90
33207;DHT22;19565;46.602;11.534;2023-06-10T03:04:29;19.40;99.90
33207;DHT22;19565;46.602;11.534;2023-06-10T03:06:57;19.30;99.90
33207;DHT22;19565;46.602;11.534;2023-06-10T03:09:27;19.40;99.90
33207;DHT22;19565;46.602;11.534;2023-06-10T03:11:55;19.40;99.90
33207;DHT22;19565;46.602;11.534;2023-06-10T03:14:24;19.30;99.90
33207;DHT22;19565;46.602;11.534;2023-06-10T03:16:52;19.30;99.90
33207;DHT22;19565;46.602;11.534;2023-06-10T03:19:20;19.30;99.90
33207;DHT22;19565;46.602;11.534;2023-06-10T03:21:59;19.30;99.90
33207;DHT22;19565;46.602;11.534;2023-06-10T03:24:34;19.30;99.90
33207;DHT22;19565;46.602;11.534;2023-06-10T03:27:04;19.40;99.90
33207;DHT22;19565;46.602;11.534;2023-06-10T03:29:32;19.40;99.90
33207;DHT22;19565;46.602;11.534;2023-06-10T03:32:00;19.30;99.90
33207;DHT22;19565;46.602;11.534;2023-06-10T03:34:28;19.30;99.90
33207;DHT22;19565;46.602;11.534;2023-06-10T03:36:58;19.20;99.90
33207;DHT22;19565;46.602;11.534;2023-06-10T03:39:26;19.20;99.90
33207;DHT22;19565;46.602;11.534;2023-06-10T03:41:56;19.10;99.90
33207;DHT22;19565;46.602;11.534;2023-06-10T03:44:24;19.20;99.90
33207;DHT22;19565;46.602;11.534;2023-06-10T03:46:54;19.20;99.90
33207;DHT22;19565;46.602;11.534;2023-06-10T03:49:23;19.20;99.90
33207;DHT22;19565;46.602;11.534;2023-06-10T03:51:52;19.20;99.90
33207;DHT22;19565;46.602;11.534;2023-06-10T03:54:22;19.20;99.90
33207;DHT22;19565;46.602;11.534;2023-06-10T03:56:50;19.20;99.90
33207;DHT22;19565;46.602;11.534;2023-06-10T03:59:18;19.30;99.90
33207;DHT22;19565;46.602;11.534;2023-06-10T04:01:46;19.40;99.90
33207;DHT22;19565;46.602;11.534;2023-06-10T04:04:14;19.30;99.90
33207;DHT22;19565;46.602;11.534;2023-06-10T04:06:43;19.30;99.90
33207;DHT22;19565;46.602;11.534;2023-06-10T04:09:12;19.30;99.90
33207;DHT22;19565;46.602;11.534;2023-06-10T04:11:43;19.40;99.90
33207;DHT22;19565;46.602;11.534;2023-06-10T04:14:11;19.40;99.90
33207;DHT22;19565;46.602;11.534;2023-06-10T04:16:40;19.30;99.90
33207;DHT22;19565;46.602;11.534;2023-06-10T04:19:09;19.00;99.90
33207;DHT22;19565;46.602;11.534;2023-06-10T04:21:37;18.90;99.90
33207;DHT22;19565;46.602;11.534;2023-06-10T04:24:07;18.90;99.90
33207;DHT22;19565;46.602;11.534;2023-06-10T04:26:35;19.10;99.90
33207;DHT22;19565;46.602;11.534;2023-06-10T04:29:05;19.10;99.90
33207;DHT22;19565;46.602;11.534;2023-06-10T04:31:33;19.30;99.90
33207;DHT22;19565;46.602;11.534;2023-06-10T04:34:01;19.20;99.90
33207;DHT22;19565;46.602;11.534;2023-06-10T04:36:29;19.00;99.90
33207;DHT22;19565;46.602;11.534;2023-06-10T04:38:57;18.90;99.90
33207;DHT22;19565;46.602;11.534;2023-06-10T04:41:25;18.90;99.90
33207;DHT22;19565;46.602;11.534;2023-06-10T04:43:53;18.90;99.90
33207;DHT22;19565;46.602;11.534;2023-06-10T04:46:23;19.00;99.90
33207;DHT22;19565;46.602;11.534;2023-06-10T04:48:52;19.10;99.90
33207;DHT22;19565;46.602;11.534;2023-06-10T04:51:21;19.30;99.90
33207;DHT22;19565;46.602;11.534;2023-06-10T04:53:49;19.40;99.90
33207;DHT22;19565;46.602;11.534;2023-06-10T04:56:17;19.30;99.90
33207;DHT22;19565;46.602;11.534;2023-06-10T04:58:45;19.20;99.90
33207;DHT22;19565;46.602;11.534;2023-06-10T05:01:13;19.30;99.90
33207;DHT22;19565;46.602;11.534;2023-06-10T05:03:43;19.30;99.90
33207;DHT22;19565;46.602;11.534;2023-06-10T05:06:11;19.20;99.90
33207;DHT22;19565;46.602;11.534;2023-06-10T05:08:39;19.20;99.90
33207;DHT22;19565;46.602;11.534;2023-06-10T05:11:07;19.10;99.90
33207;DHT22;19565;46.602;11.534;2023-06-10T05:13:35;19.00;99.90
33207;DHT22;19565;46.602;11.534;2023-06-10T05:16:03;19.00;99.90
33207;DHT22;19565;46.602;11.534;2023-06-10T05:18:31;18.80;99.90
33207;DHT22;19565;46.602;11.534;2023-06-10T05:21:01;18.70;99.90
33207;DHT22;19565;46.602;11.534;2023-06-10T05:23:29;18.70;99.90
33207;DHT22;19565;46.602;11.534;2023-06-10T05:25:57;18.70;99.90
33207;DHT22;19565;46.602;11.534;2023-06-10T05:28:26;18.70;99.90
33207;DHT22;19565;46.602;11.534;2023-06-10T05:30:54;18.70;99.90
33207;DHT22;19565;46.602;11.534;2023-06-10T05:33:22;18.70;99.90
33207;DHT22;19565;46.602;11.534;2023-06-10T05:35:50;18.80;99.90
33207;DHT22;19565;46.602;11.534;2023-06-10T05:38:19;18.90;99.90
33207;DHT22;19565;46.602;11.534;2023-06-10T05:40:48;18.90;99.90
33207;DHT22;19565;46.602;11.534;2023-06-10T05:43:16;19.00;99.90
33207;DHT22;19565;46.602;11.534;2023-06-10T05:45:44;19.10;99.90
33207;DHT22;19565;46.602;11.534;2023-06-10T05:48:12;19.10;99.90
33207;DHT22;19565;46.602;11.534;2023-06-10T05:50:40;19.20;99.90
33207;DHT22;19565;46.602;11.534;2023-06-10T05:53:11;19.20;99.20
33207;DHT22;19565;46.602;11.534;2023-06-10T05:55:44;19.20;98.10
33207;DHT22;19565;46.602;11.534;2023-06-10T05:58:13;19.30;97.90
33207;DHT22;19565;46.602;11.534;2023-06-10T06:00:41;19.30;97.00
33207;DHT22;19565;46.602;11.534;2023-06-10T06:03:09;19.30;97.00
33207;DHT22;19565;46.602;11.534;2023-06-10T06:05:38;19.40;96.80
33207;DHT22;19565;46.602;11.534;2023-06-10T06:08:07;19.50;96.70
33207;DHT22;19565;46.602;11.534;2023-06-10T06:10:35;19.60;96.60
33207;DHT22;19565;46.602;11.534;2023-06-10T06:13:04;19.60;96.10
33207;DHT22;19565;46.602;11.534;2023-06-10T06:15:32;19.70;95.90
33207;DHT22;19565;46.602;11.534;2023-06-10T06:18:01;19.80;96.00
33207;DHT22;19565;46.602;11.534;2023-06-10T06:20:29;19.80;95.50
33207;DHT22;19565;46.602;11.534;2023-06-10T06:22:57;19.90;95.70
33207;DHT22;19565;46.602;11.534;2023-06-10T06:25:25;20.00;95.50
33207;DHT22;19565;46.602;11.534;2023-06-10T06:27:53;20.00;95.40
33207;DHT22;19565;46.602;11.534;2023-06-10T06:30:22;20.10;95.10
33207;DHT22;19565;46.602;11.534;2023-06-10T06:32:50;20.10;94.80
33207;DHT22;19565;46.602;11.534;2023-06-10T06:35:19;20.20;94.60
33207;DHT22;19565;46.602;11.534;2023-06-10T06:37:47;20.30;94.20
33207;DHT22;19565;46.602;11.534;2023-06-10T06:40:15;20.30;93.90
33207;DHT22;19565;46.602;11.534;2023-06-10T06:42:44;20.30;93.80
33207;DHT22;19565;46.602;11.534;2023-06-10T06:45:13;20.20;93.90
33207;DHT22;19565;46.602;11.534;2023-06-10T06:47:43;20.30;93.90
33207;DHT22;19565;46.602;11.534;2023-06-10T06:50:11;20.30;93.60
33207;DHT22;19565;46.602;11.534;2023-06-10T06:52:39;20.40;93.70
33207;DHT22;19565;46.602;11.534;2023-06-10T06:55:08;20.40;93.70
33207;DHT22;19565;46.602;11.534;2023-06-10T06:57:36;20.60;94.00
33207;DHT22;19565;46.602;11.534;2023-06-10T07:00:06;20.60;94.00
33207;DHT22;19565;46.602;11.534;2023-06-10T07:02:35;20.70;93.80
33207;DHT22;19565;46.602;11.534;2023-06-10T07:05:05;20.80;93.30
33207;DHT22;19565;46.602;11.534;2023-06-10T07:07:34;20.80;93.20
33207;DHT22;19565;46.602;11.534;2023-06-10T07:10:02;20.90;93.20
33207;DHT22;19565;46.602;11.534;2023-06-10T07:12:30;20.90;92.80
33207;DHT22;19565;46.602;11.534;2023-06-10T07:14:58;20.90;92.50
33207;DHT22;19565;46.602;11.534;2023-06-10T07:17:27;20.90;92.60
33207;DHT22;19565;46.602;11.534;2023-06-10T07:19:55;21.10;92.80
33207;DHT22;19565;46.602;11.534;2023-06-10T07:22:25;21.10;91.60
33207;DHT22;19565;46.602;11.534;2023-06-10T07:24:53;21.20;91.60
33207;DHT22;19565;46.602;11.534;2023-06-10T07:27:22;21.20;91.90
33207;DHT22;19565;46.602;11.534;2023-06-10T07:29:50;21.30;92.40
33207;DHT22;19565;46.602;11.534;2023-06-10T07:32:19;21.30;92.80
33207;DHT22;19565;46.602;11.534;2023-06-10T07:34:49;21.40;93.20
33207;DHT22;19565;46.602;11.534;2023-06-10T07:37:17;21.40;93.00
33207;DHT22;19565;46.602;11.534;2023-06-10T07:39:47;21.30;92.50
33207;DHT22;19565;46.602;11.534;2023-06-10T07:42:15;21.30;92.80
33207;DHT22;19565;46.602;11.534;2023-06-10T07:44:44;21.30;92.60
33207;DHT22;19565;46.602;11.534;2023-06-10T07:47:12;21.30;92.70
33207;DHT22;19565;46.602;11.534;2023-06-10T07:49:40;21.30;92.80
33207;DHT22;19565;46.602;11.534;2023-06-10T07:52:08;21.30;93.50
33207;DHT22;19565;46.602;11.534;2023-06-10T07:54:36;21.40;93.20
33207;DHT22;19565;46.602;11.534;2023-06-10T07:57:06;21.40;92.80
33207;DHT22;19565;46.602;11.534;2023-06-10T07:59:35;21.50;92.90
33207;DHT22;19565;46.602;11.534;2023-06-10T08:02:03;21.50;92.40
33207;DHT22;19565;46.602;11.534;2023-06-10T08:04:32;21.60;91.90
33207;DHT22;19565;46.602;11.534;2023-06-10T08:07:02;21.60;91.80
33207;DHT22;19565;46.602;11.534;2023-06-10T08:09:31;21.70;91.70
33207;DHT22;19565;46.602;11.534;2023-06-10T08:11:59;21.80;91.60
33207;DHT22;19565;46.602;11.534;2023-06-10T08:14:29;21.90;91.70
33207;DHT22;19565;46.602;11.534;2023-06-10T08:16:57;22.00;92.00
33207;DHT22;19565;46.602;11.534;2023-06-10T08:19:25;22.00;91.60
33207;DHT22;19565;46.602;11.534;2023-06-10T08:21:53;22.10;91.70
33207;DHT22;19565;46.602;11.534;2023-06-10T08:24:22;22.20;92.00
33207;DHT22;19565;46.602;11.534;2023-06-10T08:26:50;22.30;92.20
33207;DHT22;19565;46.602;11.534;2023-06-10T08:29:18;22.30;92.70
33207;DHT22;19565;46.602;11.534;2023-06-10T08:31:47;22.30;92.70
33207;DHT22;19565;46.602;11.534;2023-06-10T08:34:15;22.40;93.20
33207;DHT22;19565;46.602;11.534;2023-06-10T08:36:43;22.30;93.30
33207;DHT22;19565;46.602;11.534;2023-06-10T08:39:12;22.40;93.80
33207;DHT22;19565;46.602;11.534;2023-06-10T08:41:43;22.40;93.40
33207;DHT22;19565;46.602;11.534;2023-06-10T08:44:17;22.40;93.40
33207;DHT22;19565;46.602;11.534;2023-06-10T08:46:49;22.40;93.40
33207;DHT22;19565;46.602;11.534;2023-06-10T08:49:18;22.50;93.30
33207;DHT22;19565;46.602;11.534;2023-06-10T08:51:50;22.50;93.10
33207;DHT22;19565;46.602;11.534;2023-06-10T08:54:22;22.60;93.30
33207;DHT22;19565;46.602;11.534;2023-06-10T08:56:54;22.60;92.90
33207;DHT22;19565;46.602;11.534;2023-06-10T08:59:23;22.70;93.60
33207;DHT22;19565;46.602;11.534;2023-06-10T09:01:54;22.80;93.40
33207;DHT22;19565;46.602;11.534;2023-06-10T09:04:24;22.80;92.60
33207;DHT22;19565;46.602;11.534;2023-06-10T09:06:53;22.80;92.40
33207;DHT22;19565;46.602;11.534;2023-06-10T09:09:23;22.90;92.50
33207;DHT22;19565;46.602;11.534;2023-06-10T09:11:51;23.00;92.00
33207;DHT22;19565;46.602;11.534;2023-06-10T09:14:19;23.00;91.10
33207;DHT22;19565;46.602;11.534;2023-06-10T09:16:47;23.00;91.10
33207;DHT22;19565;46.602;11.534;2023-06-10T09:19:17;23.10;91.30
33207;DHT22;19565;46.602;11.534;2023-06-10T09:21:45;23.10;91.20
33207;DHT22;19565;46.602;11.534;2023-06-10T09:24:13;23.20;91.00
33207;DHT22;19565;46.602;11.534;2023-06-10T09:26:43;23.30;91.00
33207;DHT22;19565;46.602;11.534;2023-06-10T09:29:12;23.30;91.20
33207;DHT22;19565;46.602;11.534;2023-06-10T09:31:40;23.30;91.30
33207;DHT22;19565;46.602;11.534;2023-06-10T09:34:10;23.40;91.40
33207;DHT22;19565;46.602;11.534;2023-06-10T09:36:40;23.50;91.20
33207;DHT22;19565;46.602;11.534;2023-06-10T09:39:14;23.50;91.20
33207;DHT22;19565;46.602;11.534;2023-06-10T09:41:44;23.60;90.60
33207;DHT22;19565;46.602;11.534;2023-06-10T09:44:13;23.60;90.60
33207;DHT22;19565;46.602;11.534;2023-06-10T09:46:42;23.70;90.60
33207;DHT22;19565;46.602;11.534;2023-06-10T09:49:12;23.70;90.00
33207;DHT22;19565;46.602;11.534;2023-06-10T09:51:50;23.80;89.40
33207;DHT22;19565;46.602;11.534;2023-06-10T09:54:20;23.90;89.10
33207;DHT22;19565;46.602;11.534;2023-06-10T09:56:48;24.00;88.20
33207;DHT22;19565;46.602;11.534;2023-06-10T09:59:19;24.00;87.30
33207;DHT22;19565;46.602;11.534;2023-06-10T10:01:56;24.00;86.40
33207;DHT22;19565;46.602;11.534;2023-06-10T10:04:24;24.10;86.10
33207;DHT22;19565;46.602;11.534;2023-06-10T10:06:54;24.20;84.70
33207;DHT22;19565;46.602;11.534;2023-06-10T10:09:22;24.30;85.10
33207;DHT22;19565;46.602;11.534;2023-06-10T10:11:52;24.30;84.50
33207;DHT22;19565;46.602;11.534;2023-06-10T10:14:21;24.40;84.10
33207;DHT22;19565;46.602;11.534;2023-06-10T10:16:50;24.40;83.90
33207;DHT22;19565;46.602;11.534;2023-06-10T10:19:23;24.40;84.00
33207;DHT22;19565;46.602;11.534;2023-06-10T10:21:56;24.50;84.70
33207;DHT22;19565;46.602;11.534;2023-06-10T10:24:32;24.50;84.00
33207;DHT22;19565;46.602;11.534;2023-06-10T10:27:07;24.50;83.70
33207;DHT22;19565;46.602;11.534;2023-06-10T10:29:40;24.50;83.80
33207;DHT22;19565;46.602;11.534;2023-06-10T10:32:09;24.50;83.70
33207;DHT22;19565;46.602;11.534;2023-06-10T10:34:45;24.60;83.70
33207;DHT22;19565;46.602;11.534;2023-06-10T10:37:20;24.60;83.30
33207;DHT22;19565;46.602;11.534;2023-06-10T10:39:48;24.70;82.50
33207;DHT22;19565;46.602;11.534;2023-06-10T10:42:17;24.80;83.40
33207;DHT22;19565;46.602;11.534;2023-06-10T10:44:46;24.90;83.30
33207;DHT22;19565;46.602;11.534;2023-06-10T10:47:16;24.90;82.40
33207;DHT22;19565;46.602;11.534;2023-06-10T10:49:50;25.00;83.40
33207;DHT22;19565;46.602;11.534;2023-06-10T10:52:20;25.00;82.10
33207;DHT22;19565;46.602;11.534;2023-06-10T10:54:49;25.10;80.50
33207;DHT22;19565;46.602;11.534;2023-06-10T10:57:19;25.10;81.10
33207;DHT22;19565;46.602;11.534;2023-06-10T10:59:58;25.30;82.00
33207;DHT22;19565;46.602;11.534;2023-06-10T11:02:40;25.40;81.30
33207;DHT22;19565;46.602;11.534;2023-06-10T11:05:12;25.50;79.60
33207;DHT22;19565;46.602;11.534;2023-06-10T11:07:52;25.50;79.00
33207;DHT22;19565;46.602;11.534;2023-06-10T11:10:30;25.60;78.00
33207;DHT22;19565;46.602;11.534;2023-06-10T11:12:59;25.60;78.20
33207;DHT22;19565;46.602;11.534;2023-06-10T11:15:28;25.70;77.70
33207;DHT22;19565;46.602;11.534;2023-06-10T11:18:13;25.80;78.50
33207;DHT22;19565;46.602;11.534;2023-06-10T11:20:56;25.80;78.80
33207;DHT22;19565;46.602;11.534;2023-06-10T11:23:30;25.80;77.80
33207;DHT22;19565;46.602;11.534;2023-06-10T11:26:21;25.80;78.60
33207;DHT22;19565;46.602;11.534;2023-06-10T11:31:44;25.90;77.70
33207;DHT22;19565;46.602;11.534;2023-06-10T11:34:13;25.80;77.50
33207;DHT22;19565;46.602;11.534;2023-06-10T11:36:42;25.90;77.80
33207;DHT22;19565;46.602;11.534;2023-06-10T11:39:14;25.80;75.30
33207;DHT22;19565;46.602;11.534;2023-06-10T11:41:42;25.80;76.50
33207;DHT22;19565;46.602;11.534;2023-06-10T11:44:11;25.80;76.70
33207;DHT22;19565;46.602;11.534;2023-06-10T11:46:44;25.80;77.40
33207;DHT22;19565;46.602;11.534;2023-06-10T11:49:12;25.80;77.50
33207;DHT22;19565;46.602;11.534;2023-06-10T11:51:41;25.80;78.40
33207;DHT22;19565;46.602;11.534;2023-06-10T11:54:17;25.70;78.20
33207;DHT22;19565;46.602;11.534;2023-06-10T11:56:46;25.70;78.10
33207;DHT22;19565;46.602;11.534;2023-06-10T11:59:15;25.70;79.60
33207;DHT22;19565;46.602;11.534;2023-06-10T12:01:44;25.70;80.00
33207;DHT22;19565;46.602;11.534;2023-06-10T12:04:15;25.80;80.00
33207;DHT22;19565;46.602;11.534;2023-06-10T12:06:46;25.80;81.40
33207;DHT22;19565;46.602;11.534;2023-06-10T12:09:18;25.80;82.30
33207;DHT22;19565;46.602;11.534;2023-06-10T12:11:53;25.80;83.00
33207;DHT22;19565;46.602;11.534;2023-06-10T12:14:50;25.80;83.90
33207;DHT22;19565;46.602;11.534;2023-06-10T12:17:20;25.80;83.90
33207;DHT22;19565;46.602;11.534;2023-06-10T12:19:49;25.80;83.90
33207;DHT22;19565;46.602;11.534;2023-06-10T12:22:17;25.90;83.80
33207;DHT22;19565;46.602;11.534;2023-06-10T12:24:59;25.80;82.60
33207;DHT22;19565;46.602;11.534;2023-06-10T12:27:29;25.80;82.30
33207;DHT22;19565;46.602;11.534;2023-06-10T12:29:59;25.80;82.30
33207;DHT22;19565;46.602;11.534;2023-06-10T12:32:40;25.70;82.60
33207;DHT22;19565;46.602;11.534;2023-06-10T12:35:10;25.70;82.80
33207;DHT22;19565;46.602;11.534;2023-06-10T12:37:39;25.70;82.80
33207;DHT22;19565;46.602;11.534;2023-06-10T12:40:11;25.80;83.40
33207;DHT22;19565;46.602;11.534;2023-06-10T12:42:39;25.90;82.10
33207;DHT22;19565;46.602;11.534;2023-06-10T12:45:09;26.00;81.40
33207;DHT22;19565;46.602;11.534;2023-06-10T12:47:39;26.10;80.20
33207;DHT22;19565;46.602;11.534;2023-06-10T12:50:09;26.20;80.60
33207;DHT22;19565;46.602;11.534;2023-06-10T12:52:39;26.20;80.40
33207;DHT22;19565;46.602;11.534;2023-06-10T12:55:08;26.30;80.40
33207;DHT22;19565;46.602;11.534;2023-06-10T12:57:47;26.40;80.10
33207;DHT22;19565;46.602;11.534;2023-06-10T13:00:17;26.40;80.10
33207;DHT22;19565;46.602;11.534;2023-06-10T13:02:47;26.50;80.80
33207;DHT22;19565;46.602;11.534;2023-06-10T13:05:16;26.50;80.60
33207;DHT22;19565;46.602;11.534;2023-06-10T13:07:45;26.50;80.00
33207;DHT22;19565;46.602;11.534;2023-06-10T13:10:13;26.50;79.50
33207;DHT22;19565;46.602;11.534;2023-06-10T13:12:43;26.50;79.70
33207;DHT22;19565;46.602;11.534;2023-06-10T13:15:14;26.50;79.80
33207;DHT22;19565;46.602;11.534;2023-06-10T13:17:42;26.40;80.90
33207;DHT22;19565;46.602;11.534;2023-06-10T13:20:11;26.30;81.00
33207;DHT22;19565;46.602;11.534;2023-06-10T13:22:39;26.20;80.30
33207;DHT22;19565;46.602;11.534;2023-06-10T13:25:08;26.10;80.20
33207;DHT22;19565;46.602;11.534;2023-06-10T13:27:37;26.10;80.50
33207;DHT22;19565;46.602;11.534;2023-06-10T13:30:09;26.00;81.00
33207;DHT22;19565;46.602;11.534;2023-06-10T13:32:38;26.00;81.30
33207;DHT22;19565;46.602;11.534;2023-06-10T13:35:07;26.00;81.20
33207;DHT22;19565;46.602;11.534;2023-06-10T13:37:35;26.00;81.80
33207;DHT22;19565;46.602;11.534;2023-06-10T13:40:05;25.90;81.60
33207;DHT22;19565;46.602;11.534;2023-06-10T13:42:34;25.90;81.30
33207;DHT22;19565;46.602;11.534;2023-06-10T13:45:04;25.80;81.10
33207;DHT22;19565;46.602;11.534;2023-06-10T13:47:34;25.80;78.70
33207;DHT22;19565;46.602;11.534;2023-06-10T13:50:03;25.80;77.20
33207;DHT22;19565;46.602;11.534;2023-06-10T13:52:31;25.70;77.10
33207;DHT22;19565;46.602;11.534;2023-06-10T13:54:59;25.60;78.50
33207;DHT22;19565;46.602;11.534;2023-06-10T13:57:27;25.60;79.00
33207;DHT22;19565;46.602;11.534;2023-06-10T13:59:55;25.60;79.40
33207;DHT22;19565;46.602;11.534;2023-06-10T14:02:23;25.70;79.40
33207;DHT22;19565;46.602;11.534;2023-06-10T14:04:53;25.70;78.40
33207;DHT22;19565;46.602;11.534;2023-06-10T14:07:21;25.60;78.50
33207;DHT22;19565;46.602;11.534;2023-06-10T14:09:49;25.70;78.20
33207;DHT22;19565;46.602;11.534;2023-06-10T14:12:18;25.70;78.40
33207;DHT22;19565;46.602;11.534;2023-06-10T14:14:46;25.70;78.60
33207;DHT22;19565;46.602;11.534;2023-06-10T14:17:14;25.60;79.00
33207;DHT22;19565;46.602;11.534;2023-06-10T14:19:42;25.60;80.40
33207;DHT22;19565;46.602;11.534;2023-06-10T14:22:12;25.50;80.90
33207;DHT22;19565;46.602;11.534;2023-06-10T14:24:40;25.50;81.30
33207;DHT22;19565;46.602;11.534;2023-06-10T14:27:07;25.40;80.80
33207;DHT22;19565;46.602;11.534;2023-06-10T14:29:35;25.40;81.80
33207;DHT22;19565;46.602;11.534;2023-06-10T14:32:04;25.40;81.90
33207;DHT22;19565;46.602;11.534;2023-06-10T14:34:35;25.40;80.60
33207;DHT22;19565;46.602;11.534;2023-06-10T14:37:04;25.80;78.00
33207;DHT22;19565;46.602;11.534;2023-06-10T14:39:35;26.10;77.20
33207;DHT22;19565;46.602;11.534;2023-06-10T14:42:04;26.10;78.00
33207;DHT22;19565;46.602;11.534;2023-06-10T14:44:33;25.90;77.60
33207;DHT22;19565;46.602;11.534;2023-06-10T14:47:01;25.80;78.10
33207;DHT22;19565;46.602;11.534;2023-06-10T14:49:29;25.60;77.40
33207;DHT22;19565;46.602;11.534;2023-06-10T14:51:57;25.40;75.40
33207;DHT22;19565;46.602;11.534;2023-06-10T14:54:25;25.30;71.60
33207;DHT22;19565;46.602;11.534;2023-06-10T14:56:55;25.10;71.70
33207;DHT22;19565;46.602;11.534;2023-06-10T14:59:23;25.00;72.30
33207;DHT22;19565;46.602;11.534;2023-06-10T15:01:51;25.00;72.40
33207;DHT22;19565;46.602;11.534;2023-06-10T15:04:20;24.90;71.90
33207;DHT22;19565;46.602;11.534;2023-06-10T15:06:50;24.80;70.30
33207;DHT22;19565;46.602;11.534;2023-06-10T15:09:18;24.80;69.00
33207;DHT22;19565;46.602;11.534;2023-06-10T15:11:47;24.80;69.30
33207;DHT22;19565;46.602;11.534;2023-06-10T15:14:16;24.70;70.30
33207;DHT22;19565;46.602;11.534;2023-06-10T15:16:44;24.70;71.90
33207;DHT22;19565;46.602;11.534;2023-06-10T15:19:13;24.70;71.00
33207;DHT22;19565;46.602;11.534;2023-06-10T15:21:41;24.60;71.90
33207;DHT22;19565;46.602;11.534;2023-06-10T15:24:09;24.60;72.70
33207;DHT22;19565;46.602;11.534;2023-06-10T15:26:37;24.60;74.90
33207;DHT22;19565;46.602;11.534;2023-06-10T15:29:05;24.50;73.90
33207;DHT22;19565;46.602;11.534;2023-06-10T15:31:35;24.60;74.60